Indianola, IA (50125)

4:16 PM CDT on September 01, 2015 (GMT -0500)
Indianola Town Square | | Change Station
CLOSE
Current Station
Personal Weather Station
Location: Indianola, IA
Elevation: 966 ft
Nearby Weather Stations

Elev 966 ft 41.36 °N, 93.57 °W | Updated 1 minute ago

Partly Cloudy
Partly Cloudy
88.2 °F
Feels Like 95 °F
N
2.0
Wind Variable Wind from SSE
Gusts 4.0 mph

Today
High -- | Low -- °F
--% Chance of Precip.
Yesterday
High -- | Low -- °F
Precip. -- in
6:40 AM 7:47 PM
Waning Gibbous, 86% visible
Pressure 29.92 in
Visibility 10.0 miles
Clouds Few 10000 ft
Mostly Cloudy 26000 ft
Overcast 30000 ft
Heat Index 95 °F
Dew Point 72 °F
Humidity 58%
Rainfall 0.00 in
Snow Depth Not available.
UV 2 out of 12
Pollen 11.50 out of 12
Air Quality Not available.
Flu Activity Not available.
METAR KDSM 012054Z 19009KT 10SM FEW100 BKN260 OVC300 32/22 A2995 RMK AO2 SLP132 T03170217 58004
Pressure 29.92 in
Visibility 10.0 miles
Clouds Few 10000 ft
Mostly Cloudy 26000 ft
Overcast 30000 ft
Heat Index 95 °F
Dew Point 72 °F
Humidity 58%
Rainfall 0.00 in
Snow Depth Not available.
UV 2 out of 12
Pollen 11.50 out of 12
Air Quality Not available.
Flu Activity Not available.
METAR KDSM 012054Z 19009KT 10SM FEW100 BKN260 OVC300 32/22 A2995 RMK AO2 SLP132 T03170217 58004

10-Day Weather Forecast

×

Almanac

Astronomy

Sep. 01, 2015 Rise Set
Actual Time
Civil Twilight
Nautical Twilight
Astronomical Twilight
Moon
Length of Visible Light
Length of Day
Tomorrow will be .
, % of the Moon is Illuminated

Today's Extremes

State Highs State Lows

Community

WunderPhotos

Upload Photos

1,851,617 photos uploaded!

WunderBlogs® & News

Nearby

Air Quality

  Air Quality AQ Index Pollutant
Not available.

Snow Depth

Station Depth Elevation

Earthquake Activity

City Distance Mag. Time & Date
Minimum magnitude displayed is 2.5.

Coastal Water Temperatures

Place Temperature

Stations

Nearby Weather Stations

Station Location Temp. Windchill Dew Point Humidity Wind Precip. Elev Updated Type